Terminal Aerodrome Forecast
Issued by NWS

Home | Current Version | Previous Version | Text Only | Print | Product List | Glossary On
Versions: 1 2 3 4 5 6 7 8 9 10 11 12 13 14 15
000
FTUS42 KMLB 121700
TAFSFB
TAF
KSFB 121720Z 1218/1318 10005KT P6SM SCT035 SCT250
     FM121900 08010KT P6SM VCTS SCT040CB SCT080 BKN250
      TEMPO 1219/1221 4SM TSRA BKN035CB OVC080
     FM130000 09005KT P6SM SCT040 BKN100=

USA.gov is the U.S. government's official web portal to all federal, state and local government web resources and services.